Time;durP1;ratioP1;P1;durP2;ratioP2;P2;SDS_P1;SDS_P2;PMS_P1;PMS_P2;Temp;Humidity;BMP_temperature;BMP_pressure;BME280_temperature;BME280_humidity;BME280_pressure;Samples;Min_cycle;Max_cycle;Signal;HPM_P1;HPM_P2
2023/08/03 00:01:45;;;;;;;8.93;1.93;;;;;;;;;;749547;187;922047;-66
2023/08/03 00:04:11;;;;;;;3.10;1.70;;;;;;;;;;735578;188;918974;-59
2023/08/03 00:06:37;;;;;;;6.30;2.47;;;;;;;;;;738094;188;917090;-66
2023/08/03 00:09:03;;;;;;;4.03;1.97;;;;;;;;;;750833;187;919294;-66
2023/08/03 00:11:29;;;;;;;4.40;2.20;;;;;;;;;;747861;183;920454;-66
2023/08/03 00:13:55;;;;;;;4.17;2.43;;;;;;;;;;743589;187;918876;-59
2023/08/03 00:16:21;;;;;;;9.03;2.17;;;;;;;;;;747751;186;815991;-66
2023/08/03 00:18:46;;;;;;;3.13;2.10;;;;;;;;;;748357;186;815454;-59
2023/08/03 00:21:12;;;;;;;3.87;2.23;;;;;;;;;;735775;187;823048;-59
2023/08/03 00:23:38;;;;;;;5.57;2.30;;;;;;;;;;742418;187;919915;-59
2023/08/03 00:26:04;;;;;;;3.10;1.90;;;;;;;;;;748732;187;916993;-66
2023/08/03 00:28:30;;;;;;;3.40;2.10;;;;;;;;;;738843;187;916693;-67
2023/08/03 00:30:56;;;;;;;3.90;2.27;;;;;;;;;;737445;190;919157;-66
2023/08/03 00:33:21;;;;;;;7.20;2.17;;;;;;;;;;744070;188;921395;-67
2023/08/03 00:35:47;;;;;;;3.57;2.23;;;;;;;;;;738475;188;919358;-67
2023/08/03 00:38:13;;;;;;;9.90;1.90;;;;;;;;;;742697;187;914840;-67
2023/08/03 00:40:39;;;;;;;3.92;2.10;;;;;;;;;;731777;191;916382;-60
2023/08/03 00:43:05;;;;;;;3.00;1.70;;;;;;;;;;718320;194;897862;-59
2023/08/03 00:45:31;;;;;;;4.37;2.20;;;;;;;;;;732712;187;916979;-66
2023/08/03 00:47:57;;;;;;;5.23;2.50;;;;;;;;;;735765;187;919669;-67
2023/08/03 00:50:23;;;;;;;3.50;1.97;;;;;;;;;;743728;188;921120;-68
2023/08/03 00:52:49;;;;;;;3.30;1.83;;;;;;;;;;740287;188;919426;-59
2023/08/03 00:55:14;;;;;;;4.40;1.90;;;;;;;;;;738415;188;919556;-66
2023/08/03 00:57:40;;;;;;;3.27;2.40;;;;;;;;;;744898;187;819580;-67
2023/08/03 01:00:06;;;;;;;8.27;2.30;;;;;;;;;;739697;187;918941;-66
2023/08/03 01:02:32;;;;;;;3.62;1.87;;;;;;;;;;739948;188;916613;-67
2023/08/03 01:04:58;;;;;;;4.53;2.27;;;;;;;;;;745722;188;808955;-66
2023/08/03 01:07:24;;;;;;;4.70;2.70;;;;;;;;;;741812;187;810337;-67
2023/08/03 01:09:50;;;;;;;5.70;2.13;;;;;;;;;;740470;187;919792;-59
2023/08/03 01:12:16;;;;;;;4.07;2.60;;;;;;;;;;735802;187;918720;-59
2023/08/03 01:14:42;;;;;;;3.50;2.45;;;;;;;;;;744382;188;919892;-66
2023/08/03 01:17:07;;;;;;;3.93;2.23;;;;;;;;;;743261;188;858225;-66
2023/08/03 01:19:33;;;;;;;4.50;2.60;;;;;;;;;;743085;188;918077;-59
2023/08/03 01:21:59;;;;;;;9.83;2.30;;;;;;;;;;747285;185;817759;-66
2023/08/03 01:24:25;;;;;;;3.77;2.13;;;;;;;;;;744142;187;909127;-59
2023/08/03 01:26:51;;;;;;;4.20;1.93;;;;;;;;;;741899;187;816835;-59
2023/08/03 01:29:17;;;;;;;6.17;2.63;;;;;;;;;;746683;187;891521;-59
2023/08/03 01:31:42;;;;;;;7.50;2.30;;;;;;;;;;739106;187;919442;-59
2023/08/03 01:34:09;;;;;;;3.73;2.13;;;;;;;;;;737830;189;917964;-59
2023/08/03 01:36:34;;;;;;;4.13;2.50;;;;;;;;;;737249;187;918261;-66
2023/08/03 01:39:05;;;;;;;3.63;2.00;;;;;;;;;;747389;187;918345;-66
2023/08/03 01:41:31;;;;;;;9.37;2.90;;;;;;;;;;733479;187;919427;-67
2023/08/03 01:44:06;;;;;;;13.20;3.10;;;;;;;;;;737220;188;919469;-67
2023/08/03 01:46:32;;;;;;;7.30;2.50;;;;;;;;;;740304;186;937359;-65
2023/08/03 01:48:58;;;;;;;7.37;3.00;;;;;;;;;;738012;187;923007;-58
2023/08/03 01:51:24;;;;;;;6.97;2.70;;;;;;;;;;738938;188;919510;-66
2023/08/03 01:53:50;;;;;;;3.90;2.07;;;;;;;;;;735435;187;921288;-66
2023/08/03 01:56:18;;;;;;;3.57;2.30;;;;;;;;;;745200;188;816710;-58
2023/08/03 01:58:42;;;;;;;9.32;2.72;;;;;;;;;;739977;188;918546;-60
2023/08/03 02:01:08;;;;;;;4.93;2.20;;;;;;;;;;739117;188;919408;-58
2023/08/03 02:03:34;;;;;;;4.60;2.30;;;;;;;;;;749920;187;916626;-65
2023/08/03 02:05:59;;;;;;;7.93;3.13;;;;;;;;;;740040;188;919416;-58
2023/08/03 02:08:25;;;;;;;5.17;2.40;;;;;;;;;;745985;185;917598;-58
2023/08/03 02:10:51;;;;;;;3.10;2.00;;;;;;;;;;732323;191;917802;-65
2023/08/03 02:13:17;;;;;;;8.90;2.80;;;;;;;;;;749603;188;917958;-67
2023/08/03 02:15:43;;;;;;;6.13;2.80;;;;;;;;;;733595;188;918575;-67
2023/08/03 02:18:09;;;;;;;4.40;3.10;;;;;;;;;;738591;188;920236;-67
2023/08/03 02:20:34;;;;;;;7.10;3.27;;;;;;;;;;751374;186;918929;-66
2023/08/03 02:23:00;;;;;;;6.10;2.67;;;;;;;;;;725255;191;919151;-67
2023/08/03 02:25:26;;;;;;;5.07;2.57;;;;;;;;;;713410;195;918545;-66
2023/08/03 02:27:52;;;;;;;3.90;3.00;;;;;;;;;;741070;187;922620;-66
2023/08/03 02:30:18;;;;;;;4.63;2.60;;;;;;;;;;739155;187;916242;-67
2023/08/03 02:32:44;;;;;;;5.20;2.80;;;;;;;;;;735139;188;925778;-59
2023/08/03 02:35:10;;;;;;;8.77;3.50;;;;;;;;;;739460;187;915276;-59
2023/08/03 02:37:35;;;;;;;4.83;2.53;;;;;;;;;;740945;188;918875;-69
2023/08/03 02:40:01;;;;;;;11.53;2.60;;;;;;;;;;738532;187;914858;-59
2023/08/03 02:42:27;;;;;;;4.97;3.17;;;;;;;;;;747288;186;894296;-60
2023/08/03 02:44:53;;;;;;;5.00;2.57;;;;;;;;;;747662;187;899032;-69
2023/08/03 02:47:19;;;;;;;7.30;3.00;;;;;;;;;;744781;187;919277;-61
2023/08/03 02:49:45;;;;;;;4.13;3.10;;;;;;;;;;741902;187;870197;-68
2023/08/03 02:52:10;;;;;;;6.93;2.60;;;;;;;;;;745043;187;921742;-60
2023/08/03 02:54:36;;;;;;;4.17;3.00;;;;;;;;;;738616;188;918823;-60
2023/08/03 02:57:02;;;;;;;4.97;2.73;;;;;;;;;;739941;187;918828;-60
2023/08/03 02:59:29;;;;;;;6.17;3.20;;;;;;;;;;742664;187;918906;-61
2023/08/03 03:01:55;;;;;;;6.00;2.97;;;;;;;;;;743060;187;917663;-69
2023/08/03 03:04:21;;;;;;;7.20;3.50;;;;;;;;;;734591;189;869429;-69
2023/08/03 03:06:46;;;;;;;6.00;3.03;;;;;;;;;;739643;188;922342;-68
2023/08/03 03:09:12;;;;;;;6.03;3.00;;;;;;;;;;748756;188;918554;-70
2023/08/03 03:11:38;;;;;;;4.83;2.53;;;;;;;;;;739001;188;918873;-60
2023/08/03 03:14:04;;;;;;;8.00;3.23;;;;;;;;;;743154;188;919346;-68
2023/08/03 03:16:30;;;;;;;5.30;2.47;;;;;;;;;;742445;188;909192;-60
2023/08/03 03:18:56;;;;;;;6.23;3.20;;;;;;;;;;739195;188;919587;-69
2023/08/03 03:21:21;;;;;;;10.03;3.07;;;;;;;;;;738074;188;947414;-69
2023/08/03 03:23:47;;;;;;;5.07;3.30;;;;;;;;;;742709;188;922323;-59
2023/08/03 03:26:13;;;;;;;7.57;2.67;;;;;;;;;;737949;188;818205;-59
2023/08/03 03:28:39;;;;;;;9.90;3.13;;;;;;;;;;730235;188;893990;-69
2023/08/03 03:31:05;;;;;;;4.23;2.97;;;;;;;;;;725134;191;914994;-59
2023/08/03 03:33:31;;;;;;;5.43;2.57;;;;;;;;;;729671;191;919775;-59
2023/08/03 03:35:57;;;;;;;5.07;3.23;;;;;;;;;;736103;187;916832;-60
2023/08/03 03:38:22;;;;;;;7.07;3.90;;;;;;;;;;738597;188;917913;-67
2023/08/03 03:40:48;;;;;;;4.70;2.90;;;;;;;;;;744538;187;911553;-68
2023/08/03 03:43:14;;;;;;;5.50;3.10;;;;;;;;;;736258;189;917510;-68
2023/08/03 03:45:40;;;;;;;8.23;3.00;;;;;;;;;;744534;187;950031;-68
2023/08/03 03:48:06;;;;;;;4.20;2.70;;;;;;;;;;747888;186;916105;-68
2023/08/03 03:50:32;;;;;;;6.60;4.00;;;;;;;;;;742476;186;918729;-68
2023/08/03 03:52:58;;;;;;;5.57;3.00;;;;;;;;;;741574;186;920295;-60
2023/08/03 03:55:23;;;;;;;4.20;3.13;;;;;;;;;;744760;187;816879;-59
2023/08/03 03:57:49;;;;;;;5.57;3.40;;;;;;;;;;740188;191;897131;-68
2023/08/03 04:00:15;;;;;;;5.67;3.03;;;;;;;;;;741561;187;868946;-71
2023/08/03 04:02:41;;;;;;;8.23;3.93;;;;;;;;;;745293;187;818068;-68
2023/08/03 04:05:07;;;;;;;5.93;3.27;;;;;;;;;;742944;187;916105;-68
2023/08/03 04:07:32;;;;;;;4.47;2.80;;;;;;;;;;746063;187;919643;-59
2023/08/03 04:09:58;;;;;;;7.50;3.40;;;;;;;;;;739699;188;918935;-60
2023/08/03 04:12:24;;;;;;;5.47;2.80;;;;;;;;;;743263;187;919896;-69
2023/08/03 04:14:50;;;;;;;4.17;2.90;;;;;;;;;;740921;188;814535;-69
2023/08/03 04:17:16;;;;;;;9.60;2.60;;;;;;;;;;741824;188;911665;-69
2023/08/03 04:19:42;;;;;;;4.13;3.10;;;;;;;;;;744742;188;825371;-60
2023/08/03 04:22:08;;;;;;;4.80;4.00;;;;;;;;;;737795;188;915353;-60
2023/08/03 04:24:33;;;;;;;5.63;3.37;;;;;;;;;;737831;187;813946;-60
2023/08/03 04:26:59;;;;;;;4.47;3.00;;;;;;;;;;743541;188;914166;-60
2023/08/03 04:29:25;;;;;;;5.97;3.37;;;;;;;;;;739691;188;976662;-61
2023/08/03 04:31:51;;;;;;;7.00;3.30;;;;;;;;;;734964;188;923083;-69
2023/08/03 04:34:17;;;;;;;5.67;2.73;;;;;;;;;;737048;188;918826;-70
2023/08/03 04:36:44;;;;;;;6.70;3.83;;;;;;;;;;745023;188;923045;-69
2023/08/03 04:39:08;;;;;;;5.40;3.70;;;;;;;;;;739430;187;918842;-64
2023/08/03 04:41:34;;;;;;;10.35;3.35;;;;;;;;;;738665;188;919220;-69
2023/08/03 04:44:00;;;;;;;7.13;3.37;;;;;;;;;;749417;187;916172;-60
2023/08/03 04:46:27;;;;;;;7.83;3.80;;;;;;;;;;734808;187;922308;-69
2023/08/03 04:48:52;;;;;;;5.23;2.87;;;;;;;;;;736111;187;921340;-69
2023/08/03 04:51:18;;;;;;;4.63;3.10;;;;;;;;;;739223;187;890268;-69
2023/08/03 04:53:44;;;;;;;4.63;3.03;;;;;;;;;;742340;188;919118;-69
2023/08/03 04:56:09;;;;;;;4.83;3.10;;;;;;;;;;731978;189;919907;-60
2023/08/03 04:58:35;;;;;;;4.27;3.17;;;;;;;;;;738910;187;919586;-60
2023/08/03 05:01:01;;;;;;;5.07;3.10;;;;;;;;;;750272;187;854577;-68
2023/08/03 05:03:27;;;;;;;6.20;3.10;;;;;;;;;;741522;187;919226;-68
2023/08/03 05:05:53;;;;;;;7.17;3.53;;;;;;;;;;744214;186;917269;-60
2023/08/03 05:08:22;;;;;;;6.60;3.30;;;;;;;;;;746093;187;886853;-60
2023/08/03 05:10:44;;;;;;;4.50;3.30;;;;;;;;;;742798;187;919279;-60
2023/08/03 05:13:10;;;;;;;4.90;3.43;;;;;;;;;;743018;187;919086;-60
2023/08/03 05:15:36;;;;;;;5.82;3.53;;;;;;;;;;742771;187;626055;-61
2023/08/03 05:18:02;;;;;;;5.47;3.73;;;;;;;;;;748132;187;923056;-68
2023/08/03 05:20:28;;;;;;;11.57;5.30;;;;;;;;;;743930;187;635322;-60
2023/08/03 05:22:54;;;;;;;8.90;4.10;;;;;;;;;;741792;187;859897;-69
2023/08/03 05:25:20;;;;;;;12.93;3.87;;;;;;;;;;745295;187;819682;-60
2023/08/03 05:27:45;;;;;;;6.40;3.37;;;;;;;;;;740969;187;914813;-60
2023/08/03 05:30:11;;;;;;;7.10;3.70;;;;;;;;;;738229;187;913069;-60
2023/08/03 05:32:37;;;;;;;5.40;3.58;;;;;;;;;;750966;187;739053;-69
2023/08/03 05:35:03;;;;;;;7.83;3.93;;;;;;;;;;740126;187;918873;-68
2023/08/03 05:37:29;;;;;;;6.93;3.37;;;;;;;;;;736541;188;1021248;-60
2023/08/03 05:39:55;;;;;;;6.07;3.80;;;;;;;;;;737863;188;918638;-60
2023/08/03 05:42:21;;;;;;;11.43;4.50;;;;;;;;;;741804;188;901375;-69
2023/08/03 05:44:47;;;;;;;6.23;4.30;;;;;;;;;;736714;188;883877;-69
2023/08/03 05:47:15;;;;;;;6.30;4.00;;;;;;;;;;739286;188;920742;-60
2023/08/03 05:49:39;;;;;;;5.60;3.67;;;;;;;;;;746958;188;912791;-69
2023/08/03 05:52:06;;;;;;;5.10;3.73;;;;;;;;;;736959;188;917984;-60
2023/08/03 05:54:31;;;;;;;5.00;3.80;;;;;;;;;;741289;187;914897;-60
2023/08/03 05:56:57;;;;;;;6.30;5.37;;;;;;;;;;741178;188;915161;-61
2023/08/03 05:59:23;;;;;;;8.10;5.30;;;;;;;;;;732063;187;945842;-69
2023/08/03 06:01:48;;;;;;;8.67;5.40;;;;;;;;;;738116;187;919791;-69
2023/08/03 06:04:15;;;;;;;6.33;4.87;;;;;;;;;;745883;187;821597;-68
2023/08/03 06:06:40;;;;;;;6.97;4.40;;;;;;;;;;737966;188;873077;-60
2023/08/03 06:09:06;;;;;;;6.83;4.60;;;;;;;;;;742894;186;817971;-68
2023/08/03 06:11:32;;;;;;;6.17;4.50;;;;;;;;;;737723;188;918600;-68
2023/08/03 06:13:58;;;;;;;5.33;3.60;;;;;;;;;;744222;188;918667;-60
2023/08/03 06:16:24;;;;;;;5.70;4.23;;;;;;;;;;734115;188;818775;-60
2023/08/03 06:18:50;;;;;;;5.80;3.93;;;;;;;;;;742050;187;815706;-60
2023/08/03 06:21:15;;;;;;;10.63;5.00;;;;;;;;;;746902;187;916129;-60
2023/08/03 06:23:41;;;;;;;8.53;3.97;;;;;;;;;;741927;187;915715;-60
2023/08/03 06:26:07;;;;;;;6.73;3.73;;;;;;;;;;737394;187;919206;-68
2023/08/03 06:28:33;;;;;;;6.90;4.40;;;;;;;;;;748505;187;921224;-69
2023/08/03 06:30:59;;;;;;;5.70;3.63;;;;;;;;;;740137;188;919077;-59
2023/08/03 06:33:24;;;;;;;5.28;3.83;;;;;;;;;;743289;188;918429;-60
2023/08/03 06:35:51;;;;;;;7.03;3.58;;;;;;;;;;740626;188;878780;-68
2023/08/03 06:38:17;;;;;;;9.00;4.40;;;;;;;;;;738455;188;919128;-61
2023/08/03 06:40:43;;;;;;;10.30;3.60;;;;;;;;;;737174;188;918887;-60
2023/08/03 06:43:09;;;;;;;9.07;4.50;;;;;;;;;;740806;187;923632;-69
2023/08/03 06:45:35;;;;;;;7.33;3.97;;;;;;;;;;740622;188;817826;-69
2023/08/03 06:48:00;;;;;;;6.17;3.83;;;;;;;;;;742261;188;917307;-69
2023/08/03 06:50:26;;;;;;;8.20;3.83;;;;;;;;;;740208;188;1005762;-68
2023/08/03 06:52:52;;;;;;;8.17;3.90;;;;;;;;;;742706;188;916627;-69
2023/08/03 06:55:18;;;;;;;5.20;3.90;;;;;;;;;;740743;188;919743;-60
2023/08/03 06:57:44;;;;;;;5.67;3.60;;;;;;;;;;736977;187;920601;-68
2023/08/03 07:00:10;;;;;;;5.23;3.50;;;;;;;;;;745122;188;920872;-60
2023/08/03 07:02:36;;;;;;;5.97;3.87;;;;;;;;;;736742;189;918802;-69
2023/08/03 07:05:02;;;;;;;8.93;3.90;;;;;;;;;;739952;188;866267;-60
2023/08/03 07:07:28;;;;;;;5.93;4.43;;;;;;;;;;745431;188;767199;-60
2023/08/03 07:09:54;;;;;;;5.77;4.20;;;;;;;;;;747104;187;667955;-69
2023/08/03 07:12:20;;;;;;;5.00;3.73;;;;;;;;;;740019;188;1002890;-68
2023/08/03 07:14:46;;;;;;;9.27;4.10;;;;;;;;;;737866;187;904596;-60
2023/08/03 07:17:12;;;;;;;4.63;3.53;;;;;;;;;;745126;187;886996;-68
2023/08/03 07:19:38;;;;;;;8.90;3.70;;;;;;;;;;744228;188;624462;-59
2023/08/03 07:22:04;;;;;;;5.90;3.77;;;;;;;;;;742138;188;647914;-59
2023/08/03 07:24:29;;;;;;;5.93;3.93;;;;;;;;;;741973;188;839793;-63
2023/08/03 07:26:55;;;;;;;4.23;2.97;;;;;;;;;;744516;187;630764;-59
2023/08/03 07:29:21;;;;;;;9.07;3.87;;;;;;;;;;739408;186;621330;-69
2023/08/03 07:31:48;;;;;;;6.57;3.90;;;;;;;;;;746539;186;640348;-68
2023/08/03 07:34:13;;;;;;;5.90;4.00;;;;;;;;;;743867;187;633976;-61
2023/08/03 07:36:39;;;;;;;5.37;3.70;;;;;;;;;;739022;189;629674;-60
2023/08/03 07:39:05;;;;;;;5.40;3.37;;;;;;;;;;741629;188;633622;-60
2023/08/03 07:41:30;;;;;;;5.40;3.90;;;;;;;;;;744415;187;629944;-59
2023/08/03 07:43:56;;;;;;;5.50;3.77;;;;;;;;;;743885;187;617968;-60
2023/08/03 07:46:22;;;;;;;5.10;3.60;;;;;;;;;;744649;187;919020;-68
2023/08/03 07:48:48;;;;;;;7.30;3.53;;;;;;;;;;748218;187;919007;-69
2023/08/03 07:51:14;;;;;;;5.73;3.90;;;;;;;;;;740683;187;922541;-68
2023/08/03 07:53:40;;;;;;;4.87;3.73;;;;;;;;;;735752;187;921453;-59
2023/08/03 07:56:11;;;;;;;5.87;3.60;;;;;;;;;;740817;188;920396;-60
2023/08/03 07:58:37;;;;;;;6.80;3.33;;;;;;;;;;742273;188;921143;-69
2023/08/03 08:01:04;;;;;;;4.60;3.67;;;;;;;;;;738087;188;918806;-60
2023/08/03 08:03:30;;;;;;;7.90;3.63;;;;;;;;;;733958;188;919101;-60
2023/08/03 08:05:55;;;;;;;7.23;4.63;;;;;;;;;;744404;188;917409;-60
2023/08/03 08:08:21;;;;;;;4.73;3.40;;;;;;;;;;741467;188;919071;-59
2023/08/03 08:10:47;;;;;;;4.53;3.57;;;;;;;;;;736665;188;819661;-60
2023/08/03 08:13:13;;;;;;;7.37;4.33;;;;;;;;;;738447;188;916433;-60
2023/08/03 08:15:39;;;;;;;8.40;4.30;;;;;;;;;;746198;187;917246;-68
2023/08/03 08:18:05;;;;;;;6.40;3.40;;;;;;;;;;743209;187;930336;-69
2023/08/03 08:20:30;;;;;;;8.10;3.60;;;;;;;;;;740853;187;900800;-59
2023/08/03 08:22:56;;;;;;;6.57;3.33;;;;;;;;;;740562;187;714520;-69
2023/08/03 08:25:22;;;;;;;5.83;3.40;;;;;;;;;;743284;187;918967;-69
2023/08/03 08:27:48;;;;;;;4.70;3.30;;;;;;;;;;738100;188;917785;-68
2023/08/03 08:30:14;;;;;;;5.37;3.40;;;;;;;;;;738934;188;918011;-59
2023/08/03 08:32:40;;;;;;;4.60;3.07;;;;;;;;;;739533;186;915464;-60
2023/08/03 08:35:06;;;;;;;7.60;3.60;;;;;;;;;;737895;187;916017;-69
2023/08/03 08:37:32;;;;;;;5.50;3.40;;;;;;;;;;744656;187;913513;-67
2023/08/03 08:39:58;;;;;;;7.17;3.47;;;;;;;;;;749196;184;915999;-60
2023/08/03 08:42:24;;;;;;;4.67;3.10;;;;;;;;;;734306;188;921537;-60
2023/08/03 08:44:49;;;;;;;7.60;3.00;;;;;;;;;;742944;187;820013;-68
2023/08/03 08:47:15;;;;;;;5.73;3.70;;;;;;;;;;744551;187;819773;-60
2023/08/03 08:49:41;;;;;;;7.93;3.22;;;;;;;;;;742807;188;918917;-68
2023/08/03 08:52:08;;;;;;;4.17;3.23;;;;;;;;;;738874;188;920382;-60
2023/08/03 08:54:33;;;;;;;9.37;3.30;;;;;;;;;;744525;188;942533;-60
2023/08/03 08:56:59;;;;;;;7.83;3.73;;;;;;;;;;744026;188;818360;-60
2023/08/03 08:59:27;;;;;;;7.53;3.80;;;;;;;;;;738990;188;919986;-68
2023/08/03 09:01:50;;;;;;;5.33;3.20;;;;;;;;;;746833;187;818617;-68
2023/08/03 09:04:16;;;;;;;4.47;3.20;;;;;;;;;;743836;187;777288;-68
2023/08/03 09:06:42;;;;;;;5.73;3.77;;;;;;;;;;735934;188;913664;-69
2023/08/03 09:09:08;;;;;;;7.63;3.37;;;;;;;;;;737504;187;918932;-68
2023/08/03 09:11:36;;;;;;;5.70;3.90;;;;;;;;;;744365;188;901783;-59
2023/08/03 09:14:01;;;;;;;5.30;3.40;;;;;;;;;;746574;188;870849;-60
2023/08/03 09:16:29;;;;;;;6.00;3.62;;;;;;;;;;742764;187;1057384;-59
2023/08/03 09:18:53;;;;;;;8.93;4.30;;;;;;;;;;737836;189;923502;-59
2023/08/03 09:21:20;;;;;;;9.40;3.63;;;;;;;;;;735896;188;919267;-60
2023/08/03 09:23:46;;;;;;;11.60;4.37;;;;;;;;;;740841;187;830970;-69
2023/08/03 09:26:12;;;;;;;8.87;3.93;;;;;;;;;;737013;189;807321;-60
2023/08/03 09:28:37;;;;;;;6.60;3.87;;;;;;;;;;738858;188;916274;-68
2023/08/03 09:31:03;;;;;;;5.47;4.00;;;;;;;;;;740595;187;920417;-68
2023/08/03 09:33:29;;;;;;;9.50;4.40;;;;;;;;;;737694;188;849947;-69
2023/08/03 09:36:01;;;;;;;7.20;3.93;;;;;;;;;;746671;188;921247;-59
2023/08/03 09:38:27;;;;;;;8.73;4.03;;;;;;;;;;745389;187;906450;-59
2023/08/03 09:40:53;;;;;;;4.60;3.17;;;;;;;;;;742588;188;917152;-68
2023/08/03 09:43:19;;;;;;;5.70;3.57;;;;;;;;;;740180;189;918514;-69
2023/08/03 09:45:44;;;;;;;5.80;3.40;;;;;;;;;;738805;189;912037;-69
2023/08/03 09:48:10;;;;;;;5.17;3.03;;;;;;;;;;739766;187;1021853;-60
2023/08/03 09:50:36;;;;;;;4.40;2.70;;;;;;;;;;736037;187;871793;-60
2023/08/03 09:53:02;;;;;;;3.80;2.80;;;;;;;;;;742568;187;915601;-59
2023/08/03 09:55:28;;;;;;;5.77;2.97;;;;;;;;;;744662;187;907767;-59
2023/08/03 09:57:56;;;;;;;6.77;3.30;;;;;;;;;;743439;188;816951;-69
2023/08/03 10:00:22;;;;;;;4.27;3.00;;;;;;;;;;746443;187;919369;-69
2023/08/03 10:02:49;;;;;;;7.30;3.30;;;;;;;;;;740690;187;918253;-68
2023/08/03 10:05:15;;;;;;;5.77;2.67;;;;;;;;;;742553;187;817439;-69
2023/08/03 10:07:41;;;;;;;8.00;3.00;;;;;;;;;;750019;187;630177;-70
2023/08/03 10:10:07;;;;;;;5.53;3.20;;;;;;;;;;746868;187;642309;-60
2023/08/03 10:12:33;;;;;;;5.80;2.47;;;;;;;;;;737264;189;624398;-60
2023/08/03 10:14:59;;;;;;;7.50;2.70;;;;;;;;;;738912;187;933790;-69
2023/08/03 10:17:25;;;;;;;12.87;3.40;;;;;;;;;;748316;187;622456;-68
2023/08/03 10:19:51;;;;;;;9.30;2.97;;;;;;;;;;742232;188;627450;-68
2023/08/03 10:22:17;;;;;;;4.60;3.10;;;;;;;;;;746423;187;639006;-69
2023/08/03 10:24:43;;;;;;;5.30;3.47;;;;;;;;;;744365;188;626313;-59
2023/08/03 10:27:17;;;;;;;8.27;2.47;;;;;;;;;;744891;187;631319;-69
2023/08/03 10:29:47;;;;;;;5.50;2.70;;;;;;;;;;737537;188;913562;-69
2023/08/03 10:32:13;;;;;;;4.40;2.53;;;;;;;;;;738468;187;907301;-68
2023/08/03 10:34:40;;;;;;;5.63;3.03;;;;;;;;;;753107;187;626742;-68
2023/08/03 10:37:05;;;;;;;5.33;3.00;;;;;;;;;;746706;184;631745;-68
2023/08/03 10:39:37;;;;;;;4.30;2.63;;;;;;;;;;739201;190;628326;-59
2023/08/03 10:42:03;;;;;;;5.80;2.40;;;;;;;;;;736553;188;920194;-59
2023/08/03 10:44:28;;;;;;;6.53;2.60;;;;;;;;;;741723;187;920146;-59
2023/08/03 10:46:55;;;;;;;10.07;2.57;;;;;;;;;;745821;184;914818;-66
2023/08/03 10:49:35;;;;;;;6.40;2.47;;;;;;;;;;743813;188;627406;-67
2023/08/03 10:52:06;;;;;;;5.50;2.70;;;;;;;;;;742362;187;862282;-68
2023/08/03 10:54:32;;;;;;;4.77;2.70;;;;;;;;;;741109;189;920375;-59
2023/08/03 10:57:03;;;;;;;6.00;2.83;;;;;;;;;;741158;187;916487;-66
2023/08/03 10:59:28;;;;;;;7.00;3.07;;;;;;;;;;748722;186;819421;-59
2023/08/03 11:01:54;;;;;;;6.80;2.37;;;;;;;;;;742259;187;921129;-67
2023/08/03 11:04:22;;;;;;;5.40;2.50;;;;;;;;;;744307;187;919254;-60
2023/08/03 11:06:48;;;;;;;3.70;2.47;;;;;;;;;;741725;187;919783;-68
2023/08/03 11:09:14;;;;;;;6.83;2.70;;;;;;;;;;745944;184;918347;-59
2023/08/03 11:11:40;;;;;;;5.67;2.80;;;;;;;;;;750207;187;819244;-58
2023/08/03 11:14:06;;;;;;;11.50;2.70;;;;;;;;;;745624;187;816689;-66
2023/08/03 11:16:32;;;;;;;3.40;1.93;;;;;;;;;;740950;188;922513;-59
2023/08/03 11:18:57;;;;;;;6.53;2.57;;;;;;;;;;741410;188;919228;-58
2023/08/03 11:21:23;;;;;;;7.43;2.40;;;;;;;;;;749624;188;917518;-69
2023/08/03 11:23:49;;;;;;;9.18;2.50;;;;;;;;;;740165;188;918876;-58
2023/08/03 11:26:15;;;;;;;8.37;2.80;;;;;;;;;;736710;188;918673;-59
2023/08/03 11:28:41;;;;;;;5.00;2.00;;;;;;;;;;747899;187;917268;-59
2023/08/03 11:31:16;;;;;;;6.60;2.07;;;;;;;;;;736899;189;812636;-59
2023/08/03 11:33:42;;;;;;;3.90;2.20;;;;;;;;;;739969;184;919439;-67
2023/08/03 11:36:07;;;;;;;6.30;2.67;;;;;;;;;;729839;191;916555;-69
2023/08/03 11:38:33;;;;;;;4.80;2.17;;;;;;;;;;746000;188;915640;-59
2023/08/03 11:40:59;;;;;;;5.87;2.00;;;;;;;;;;742672;187;920922;-69
2023/08/03 11:43:25;;;;;;;4.73;2.03;;;;;;;;;;740098;187;843808;-68
2023/08/03 11:45:51;;;;;;;7.27;2.77;;;;;;;;;;743310;187;820771;-68
2023/08/03 11:48:19;;;;;;;6.80;2.67;;;;;;;;;;742786;188;815921;-59
2023/08/03 11:50:42;;;;;;;5.17;2.20;;;;;;;;;;741947;187;918936;-59
2023/08/03 11:53:08;;;;;;;3.83;2.17;;;;;;;;;;745504;187;772821;-70
2023/08/03 11:55:34;;;;;;;6.87;2.90;;;;;;;;;;737037;187;918428;-59
2023/08/03 12:00:31;;;;;;;4.53;2.73;;;;;;;;;;739997;188;910050;-68
2023/08/03 12:02:57;;;;;;;4.77;2.00;;;;;;;;;;742027;187;922504;-68
2023/08/03 12:05:23;;;;;;;4.40;2.47;;;;;;;;;;737612;187;915692;-69
2023/08/03 12:07:53;;;;;;;4.20;1.97;;;;;;;;;;743892;186;816024;-59
2023/08/03 12:10:19;;;;;;;4.40;2.07;;;;;;;;;;742537;187;799572;-60
2023/08/03 12:12:44;;;;;;;4.50;2.23;;;;;;;;;;743400;187;911938;-69
2023/08/03 12:15:10;;;;;;;4.03;2.17;;;;;;;;;;742522;187;622279;-59
2023/08/03 12:17:36;;;;;;;5.00;2.27;;;;;;;;;;740682;187;919297;-69
2023/08/03 12:20:02;;;;;;;3.97;1.90;;;;;;;;;;746803;187;916714;-70
2023/08/03 12:22:28;;;;;;;5.93;2.37;;;;;;;;;;740220;187;914251;-70
2023/08/03 12:24:54;;;;;;;6.35;2.47;;;;;;;;;;743649;188;918711;-68
2023/08/03 12:27:20;;;;;;;9.13;2.80;;;;;;;;;;749680;188;880801;-68
2023/08/03 12:29:45;;;;;;;7.22;2.05;;;;;;;;;;736513;187;920042;-68
2023/08/03 12:32:11;;;;;;;5.60;2.50;;;;;;;;;;751707;187;633675;-69
2023/08/03 12:34:37;;;;;;;7.53;2.53;;;;;;;;;;743593;188;918874;-69
2023/08/03 12:37:03;;;;;;;5.40;2.30;;;;;;;;;;742390;187;919994;-69
2023/08/03 12:39:29;;;;;;;4.77;2.97;;;;;;;;;;746029;187;918998;-69
2023/08/03 12:41:55;;;;;;;8.33;2.47;;;;;;;;;;739849;184;917784;-68
2023/08/03 12:44:21;;;;;;;4.50;2.17;;;;;;;;;;741164;187;864927;-69
2023/08/03 12:46:47;;;;;;;5.67;2.30;;;;;;;;;;739157;187;919046;-59
2023/08/03 12:49:12;;;;;;;5.33;2.60;;;;;;;;;;740995;188;917526;-58
2023/08/03 12:51:38;;;;;;;5.00;2.17;;;;;;;;;;746069;187;817728;-59
2023/08/03 12:54:04;;;;;;;5.13;2.53;;;;;;;;;;739423;188;920139;-70
2023/08/03 12:56:30;;;;;;;5.87;2.80;;;;;;;;;;743030;188;915915;-70
2023/08/03 12:58:56;;;;;;;5.33;2.80;;;;;;;;;;745195;188;915533;-59
2023/08/03 13:01:22;;;;;;;5.43;2.50;;;;;;;;;;741507;189;919169;-69
2023/08/03 13:03:47;;;;;;;5.23;2.23;;;;;;;;;;741771;187;918813;-70
2023/08/03 13:06:13;;;;;;;4.30;2.40;;;;;;;;;;731925;191;916382;-60
2023/08/03 13:08:39;;;;;;;4.67;2.20;;;;;;;;;;740824;187;921081;-69
2023/08/03 13:11:05;;;;;;;5.57;2.17;;;;;;;;;;736503;189;938786;-70
2023/08/03 13:13:31;;;;;;;4.20;2.50;;;;;;;;;;739677;187;917360;-67
2023/08/03 13:15:57;;;;;;;4.93;2.10;;;;;;;;;;737800;188;814993;-69
2023/08/03 13:18:23;;;;;;;5.50;3.00;;;;;;;;;;735550;187;920384;-69
2023/08/03 13:20:48;;;;;;;6.77;2.20;;;;;;;;;;744084;186;720029;-60
2023/08/03 13:23:14;;;;;;;6.00;2.10;;;;;;;;;;744086;187;917942;-69
2023/08/03 13:25:40;;;;;;;8.80;2.60;;;;;;;;;;739451;187;853595;-70
2023/08/03 13:28:06;;;;;;;4.80;2.20;;;;;;;;;;736112;187;918501;-60
2023/08/03 13:30:32;;;;;;;9.73;2.30;;;;;;;;;;745532;187;832938;-69
2023/08/03 13:32:58;;;;;;;3.80;2.00;;;;;;;;;;739643;187;919846;-59
2023/08/03 13:35:23;;;;;;;4.40;2.20;;;;;;;;;;742588;187;919400;-70
2023/08/03 13:37:51;;;;;;;5.53;2.37;;;;;;;;;;740934;188;907189;-59
2023/08/03 13:40:15;;;;;;;4.73;2.00;;;;;;;;;;746419;187;805418;-58
2023/08/03 13:42:41;;;;;;;6.67;2.43;;;;;;;;;;739014;187;919749;-67
2023/08/03 13:45:07;;;;;;;4.93;1.87;;;;;;;;;;735928;187;919732;-68
2023/08/03 13:47:33;;;;;;;6.23;2.80;;;;;;;;;;744516;187;815749;-59
2023/08/03 13:49:59;;;;;;;7.83;2.93;;;;;;;;;;737377;187;925508;-59
2023/08/03 13:52:25;;;;;;;5.17;1.97;;;;;;;;;;740001;187;916036;-58
2023/08/03 13:54:51;;;;;;;6.60;2.40;;;;;;;;;;751043;187;816849;-68
2023/08/03 13:57:18;;;;;;;7.67;2.47;;;;;;;;;;737998;188;892626;-60
2023/08/03 13:59:42;;;;;;;6.17;2.67;;;;;;;;;;744693;188;631493;-70
2023/08/03 14:02:08;;;;;;;5.47;2.50;;;;;;;;;;741103;188;816653;-60
2023/08/03 14:04:34;;;;;;;4.03;2.40;;;;;;;;;;745419;187;909330;-59
2023/08/03 14:07:00;;;;;;;7.27;2.97;;;;;;;;;;734457;187;921369;-59
2023/08/03 14:09:26;;;;;;;5.57;2.70;;;;;;;;;;737124;186;918170;-70
2023/08/03 14:11:52;;;;;;;7.43;3.03;;;;;;;;;;744621;187;922708;-69
2023/08/03 14:14:18;;;;;;;3.60;1.90;;;;;;;;;;746440;184;920801;-66
2023/08/03 14:16:48;;;;;;;5.10;1.70;;;;;;;;;;734866;188;820402;-58
2023/08/03 14:19:09;;;;;;;3.90;2.00;;;;;;;;;;742388;187;916251;-59
2023/08/03 14:21:35;;;;;;;6.73;2.37;;;;;;;;;;739407;187;913454;-59
2023/08/03 14:24:01;;;;;;;3.70;1.80;;;;;;;;;;740750;187;921771;-59